createdAt,value
2023-09-03T00:00:04.656Z,152452.53
2023-09-03T00:02:07.110Z,152433.53
2023-09-03T00:04:08.620Z,152446.19
2023-09-03T00:06:10.130Z,152467.72
2023-09-03T00:08:11.712Z,152431.00
2023-09-03T00:10:13.172Z,152431.00
2023-09-03T00:12:14.668Z,152438.63
2023-09-03T00:14:16.314Z,152438.63
2023-09-03T00:16:17.786Z,152432.25
2023-09-03T00:18:19.717Z,152446.19
2023-09-03T00:20:21.555Z,152466.44
2023-09-03T00:22:23.042Z,152467.72
2023-09-03T00:24:24.476Z,152443.69
2023-09-03T00:26:26.062Z,152420.88
2023-09-03T00:28:28.140Z,152441.16
2023-09-03T00:30:29.605Z,152433.53
2023-09-03T00:32:31.262Z,152458.88
2023-09-03T00:34:32.753Z,152429.72
2023-09-03T00:36:34.214Z,152428.44
2023-09-03T00:38:35.976Z,152399.34
2023-09-03T00:40:38.805Z,152415.81
2023-09-03T00:42:40.228Z,152422.16
2023-09-03T00:44:41.931Z,152436.06
2023-09-03T00:46:44.526Z,152455.06
2023-09-03T00:48:46.253Z,152465.22
2023-09-03T00:50:49.124Z,152494.34
2023-09-03T00:52:50.564Z,152503.25
2023-09-03T00:54:53.796Z,152524.78
2023-09-03T00:56:55.476Z,152537.44
2023-09-03T00:58:57.109Z,152558.97
2023-09-03T01:00:58.818Z,152561.53
2023-09-03T01:03:02.664Z,152575.44
2023-09-03T01:05:04.271Z,152575.44
2023-09-03T01:07:05.718Z,152595.72
2023-09-03T01:09:07.910Z,152612.25
2023-09-03T01:11:27.766Z,152597.00
2023-09-03T01:14:07.992Z,152607.22
2023-09-03T01:16:18.485Z,152614.78
2023-09-03T01:18:23.229Z,152608.47
2023-09-03T01:20:33.041Z,152589.41
2023-09-03T01:23:03.053Z,152645.22
2023-09-03T01:25:38.526Z,152623.69
2023-09-03T01:27:52.267Z,152557.72
2023-09-03T01:29:54.674Z,152622.41
2023-09-03T01:31:57.401Z,152591.91
2023-09-03T01:34:00.565Z,152597.00
2023-09-03T01:36:02.698Z,152575.44
2023-09-03T01:38:04.436Z,152612.25
2023-09-03T01:40:06.515Z,152618.59
2023-09-03T01:42:08.017Z,152612.25
2023-09-03T01:44:09.487Z,152591.91
2023-09-03T01:46:22.346Z,152575.44
2023-09-03T01:48:42.415Z,152569.09
2023-09-03T01:50:53.886Z,152576.72
2023-09-03T01:53:08.894Z,152532.34
2023-09-03T01:55:12.527Z,152545.06
2023-09-03T01:57:41.589Z,152548.81
2023-09-03T01:59:50.136Z,152538.72
2023-09-03T02:01:53.387Z,152529.81
2023-09-03T02:03:55.476Z,152505.78
2023-09-03T02:05:57.031Z,152498.16
2023-09-03T02:07:58.997Z,152482.97
2023-09-03T02:10:00.584Z,152485.50
2023-09-03T02:12:02.839Z,152480.44
2023-09-03T02:14:04.296Z,152475.34
2023-09-03T02:16:05.776Z,152432.25
2023-09-03T02:18:07.431Z,152436.06
2023-09-03T02:20:09.484Z,152429.72
2023-09-03T02:22:10.921Z,152409.47
2023-09-03T02:24:12.645Z,152360.09
2023-09-03T02:26:14.275Z,152376.53
2023-09-03T02:28:15.711Z,152381.63
2023-09-03T02:30:17.357Z,152363.84
2023-09-03T02:32:18.931Z,152394.25
2023-09-03T02:34:20.353Z,152396.81
2023-09-03T02:36:22.065Z,152386.66
2023-09-03T02:38:23.680Z,152399.34
2023-09-03T02:40:25.104Z,152394.25
2023-09-03T02:42:26.731Z,152385.38
2023-09-03T02:44:28.347Z,152385.38
2023-09-03T02:46:30.034Z,152358.81
2023-09-03T02:48:32.132Z,152348.66
2023-09-03T02:50:36.201Z,152358.81
2023-09-03T02:52:38.117Z,152362.63
2023-09-03T02:54:39.705Z,152348.66
2023-09-03T02:56:41.239Z,152343.56
2023-09-03T02:58:43.130Z,152291.66
2023-09-03T03:00:44.730Z,152299.28
2023-09-03T03:02:46.436Z,152299.28
2023-09-03T03:04:47.926Z,152286.53
2023-09-03T03:06:49.548Z,152304.31
2023-09-03T03:08:51.018Z,152262.47
2023-09-03T03:10:52.464Z,152244.75
2023-09-03T03:12:54.019Z,152253.63
2023-09-03T03:14:55.655Z,152248.56
2023-09-03T03:16:57.078Z,152230.84
2023-09-03T03:18:58.708Z,152243.50
2023-09-03T03:21:10.557Z,152248.56
2023-09-03T03:23:11.975Z,152248.56
2023-09-03T03:25:13.704Z,152220.69
2023-09-03T03:27:15.537Z,152232.13
2023-09-03T03:29:16.992Z,152185.25
2023-09-03T03:31:20.281Z,152182.72
2023-09-03T03:33:21.868Z,152156.16
2023-09-03T03:35:23.342Z,152168.81
2023-09-03T03:37:24.981Z,152183.97
2023-09-03T03:39:26.568Z,152189.06
2023-09-03T03:41:28.024Z,152210.59
2023-09-03T03:43:29.615Z,152215.66
2023-09-03T03:45:33.908Z,152218.19
2023-09-03T03:47:35.414Z,152221.97
2023-09-03T03:49:36.928Z,152229.56
2023-09-03T03:51:38.362Z,152235.91
2023-09-03T03:53:40.507Z,152239.69
2023-09-03T03:55:42.047Z,152229.56
2023-09-03T03:57:43.569Z,152233.38
2023-09-03T03:59:45.152Z,152244.75
2023-09-03T04:01:46.687Z,152238.47
2023-09-03T04:03:52.024Z,152233.38
2023-09-03T04:06:00.836Z,152220.69
2023-09-03T04:08:02.259Z,152220.69
2023-09-03T04:10:03.862Z,152258.72
2023-09-03T04:12:06.000Z,152282.75
2023-09-03T04:14:07.442Z,152258.72
2023-09-03T04:16:11.877Z,152285.28
2023-09-03T04:18:13.415Z,152287.81
2023-09-03T04:20:14.870Z,152284.00
2023-09-03T04:22:16.468Z,152261.22
2023-09-03T04:24:18.075Z,152295.47
2023-09-03T04:26:19.498Z,152254.91
2023-09-03T04:28:21.526Z,152210.59
2023-09-03T04:30:23.330Z,152281.47
2023-09-03T04:32:24.997Z,152295.47
2023-09-03T04:34:26.537Z,152303.06
2023-09-03T04:36:28.053Z,152275.16
2023-09-03T04:38:30.052Z,152275.16
2023-09-03T04:40:37.592Z,152308.13
2023-09-03T04:42:39.073Z,152287.81
2023-09-03T04:44:40.488Z,152323.31
2023-09-03T04:46:42.438Z,152314.47
2023-09-03T04:48:43.872Z,152344.84
2023-09-03T04:50:45.688Z,152366.38
2023-09-03T04:52:47.417Z,152360.09
2023-09-03T04:54:48.841Z,152389.19
2023-09-03T04:56:50.295Z,152318.28
2023-09-03T04:58:52.042Z,152353.72
2023-09-03T05:00:53.481Z,152344.84
2023-09-03T05:02:55.022Z,152401.88
2023-09-03T05:04:57.191Z,152446.19
2023-09-03T05:06:58.636Z,152452.53
2023-09-03T05:09:00.074Z,152500.69
2023-09-03T05:11:11.776Z,152527.31
2023-09-03T05:13:13.201Z,152534.91
2023-09-03T05:15:14.881Z,152742.84
2023-09-03T05:17:16.572Z,152863.31
2023-09-03T05:19:18.024Z,152961.03
2023-09-03T05:21:19.510Z,153020.72
2023-09-03T05:23:21.363Z,153147.59
2023-09-03T05:25:23.177Z,153336.84
2023-09-03T05:27:24.666Z,153479.19
2023-09-03T05:29:26.287Z,153568.16
2023-09-03T05:31:27.738Z,153556.75
2023-09-03T05:33:29.266Z,153394.06
2023-09-03T05:35:31.198Z,153367.38
2023-09-03T05:37:32.657Z,153382.59
2023-09-03T05:39:34.110Z,153334.31
2023-09-03T05:41:35.805Z,153303.84
2023-09-03T05:43:38.201Z,153390.25
2023-09-03T05:45:46.973Z,153494.47
2023-09-03T05:47:48.868Z,153593.59
2023-09-03T05:49:54.441Z,153783.06
2023-09-03T05:51:55.882Z,153923.00
2023-09-03T05:53:57.356Z,154102.44
2023-09-03T05:56:10.330Z,154166.09
2023-09-03T05:58:11.809Z,154162.25
2023-09-03T06:00:13.768Z,154048.97
2023-09-03T06:02:15.233Z,154018.41
2023-09-03T06:04:16.683Z,154052.78
2023-09-03T06:06:18.604Z,154120.25
2023-09-03T06:08:20.330Z,154163.53
2023-09-03T06:10:22.191Z,154205.53
2023-09-03T06:12:23.998Z,154359.69
2023-09-03T06:14:25.548Z,154251.38
2023-09-03T06:16:27.135Z,154358.41
2023-09-03T06:18:29.875Z,154251.38
2023-09-03T06:20:31.381Z,154355.84
2023-09-03T06:22:32.975Z,154487.06
2023-09-03T06:24:34.630Z,154521.50
2023-09-03T06:26:36.107Z,154508.78
2023-09-03T06:28:37.548Z,154590.31
2023-09-03T06:30:39.703Z,154707.59
2023-09-03T06:32:41.191Z,154683.31
2023-09-03T06:34:42.663Z,154628.53
2023-09-03T06:36:45.264Z,154583.94
2023-09-03T06:38:46.893Z,154427.19
2023-09-03T06:40:49.576Z,154326.53
2023-09-03T06:42:52.617Z,154343.13
2023-09-03T06:44:54.050Z,154363.50
2023-09-03T06:46:55.511Z,154386.44
2023-09-03T06:48:57.320Z,154131.75
2023-09-03T06:50:58.748Z,154098.63
2023-09-03T06:53:00.206Z,154076.94
2023-09-03T06:55:03.003Z,154038.78
2023-09-03T06:57:12.418Z,154050.25
2023-09-03T06:59:33.612Z,153968.81
2023-09-03T07:01:36.582Z,154029.88
2023-09-03T07:03:38.111Z,154209.38
2023-09-03T07:05:39.560Z,154167.38
2023-09-03T07:07:41.707Z,154130.47
2023-09-03T07:09:43.185Z,154138.13
2023-09-03T07:11:44.646Z,154149.56
2023-09-03T07:13:46.328Z,154154.66
2023-09-03T07:15:47.912Z,154363.50
2023-09-03T07:17:49.445Z,154507.50
2023-09-03T07:19:54.445Z,154470.47
2023-09-03T07:21:56.426Z,154548.25
2023-09-03T07:23:57.881Z,154569.94
2023-09-03T07:26:07.130Z,154712.69
2023-09-03T07:28:08.697Z,154879.72
2023-09-03T07:30:10.343Z,154818.53
2023-09-03T07:32:12.368Z,154898.91
2023-09-03T07:34:16.056Z,154976.69
2023-09-03T07:36:17.776Z,155120.88
2023-09-03T07:38:20.039Z,155151.53
2023-09-03T07:40:21.630Z,155251.09
2023-09-03T07:42:23.147Z,155303.41
2023-09-03T07:44:24.825Z,155362.13
2023-09-03T07:46:27.346Z,155419.66
2023-09-03T07:48:28.957Z,155427.28
2023-09-03T07:50:30.534Z,155325.13
2023-09-03T07:52:31.980Z,155220.41
2023-09-03T07:54:33.466Z,155249.81
2023-09-03T07:56:35.003Z,155348.09
2023-09-03T07:58:36.472Z,155170.66
2023-09-03T08:00:39.315Z,155205.09
2023-09-03T08:02:41.085Z,155205.09
2023-09-03T08:04:42.532Z,155136.19
2023-09-03T08:06:44.079Z,155235.75
2023-09-03T08:08:46.155Z,155238.25
2023-09-03T08:10:47.586Z,155231.91
2023-09-03T08:12:49.087Z,155249.81
2023-09-03T08:14:51.138Z,155220.41
2023-09-03T08:16:52.591Z,155161.72
2023-09-03T08:18:54.042Z,155059.59
2023-09-03T08:20:55.529Z,155095.34
2023-09-03T08:22:56.991Z,155091.50
2023-09-03T08:24:58.435Z,155171.94
2023-09-03T08:27:00.199Z,155224.25
2023-09-03T08:29:01.648Z,155199.97
2023-09-03T08:31:03.558Z,155092.78
2023-09-03T08:33:05.731Z,154923.13
2023-09-03T08:35:07.926Z,154877.16
2023-09-03T08:37:10.755Z,154967.72
2023-09-03T08:39:13.665Z,154944.81
2023-09-03T08:41:15.676Z,154967.72
2023-09-03T08:43:22.534Z,154863.16
2023-09-03T08:48:13.127Z,154764.94
2023-09-03T08:50:16.958Z,154701.22
2023-09-03T08:52:18.436Z,154676.94
2023-09-03T08:54:22.307Z,154633.66
2023-09-03T08:56:24.014Z,154689.72
2023-09-03T08:58:25.447Z,154747.09
2023-09-03T09:00:27.174Z,154742.00
2023-09-03T09:02:30.902Z,154793.00
2023-09-03T09:04:32.499Z,154875.88
2023-09-03T09:06:35.357Z,154952.44
2023-09-03T09:08:40.577Z,154870.78
2023-09-03T09:10:43.121Z,154895.06
2023-09-03T09:12:50.665Z,154809.56
2023-09-03T09:14:54.947Z,154956.28
2023-09-03T09:16:56.377Z,154807.03
2023-09-03T09:18:58.095Z,154836.38
2023-09-03T09:21:01.324Z,154893.78
2023-09-03T09:23:03.125Z,154990.69
2023-09-03T09:25:05.477Z,154937.16
2023-09-03T09:27:17.852Z,154934.59
2023-09-03T09:29:21.159Z,155017.50
2023-09-03T09:31:30.840Z,155029.00
2023-09-03T09:33:32.306Z,155018.78
2023-09-03T09:35:35.081Z,154995.81
2023-09-03T09:37:41.112Z,154958.84
2023-09-03T09:39:46.554Z,154780.28
2023-09-03T09:41:48.071Z,154731.81
2023-09-03T09:43:49.840Z,154671.88
2023-09-03T09:45:51.340Z,154720.31
2023-09-03T09:48:10.621Z,154776.44
2023-09-03T09:50:12.393Z,154730.53
2023-09-03T09:52:15.322Z,154985.63
2023-09-03T09:54:16.821Z,155009.81
2023-09-03T09:56:19.128Z,154896.34
2023-09-03T09:58:20.602Z,154861.88
2023-09-03T10:00:38.431Z,154738.22
2023-09-03T10:02:40.222Z,154869.50
2023-09-03T10:04:45.918Z,154835.09
2023-09-03T10:06:47.601Z,154921.84
2023-09-03T10:08:52.069Z,154758.59
2023-09-03T10:10:53.674Z,154710.16
2023-09-03T10:12:55.149Z,154692.25
2023-09-03T10:14:56.810Z,154866.94
2023-09-03T10:17:01.508Z,154855.47
2023-09-03T10:19:07.051Z,155003.47
2023-09-03T10:21:08.885Z,154924.41
2023-09-03T10:23:10.798Z,154932.03
2023-09-03T10:25:17.006Z,155009.81
2023-09-03T10:27:22.567Z,155046.84
2023-09-03T10:29:28.953Z,154988.13
2023-09-03T10:31:33.503Z,154963.94
2023-09-03T10:33:35.363Z,154803.19
2023-09-03T10:35:36.794Z,154777.72
2023-09-03T10:37:39.936Z,154665.50
2023-09-03T10:39:43.024Z,154628.53
2023-09-03T10:41:44.454Z,154633.66
2023-09-03T10:43:47.560Z,154676.94
2023-09-03T10:46:09.466Z,154750.94
2023-09-03T10:48:17.188Z,154781.50
2023-09-03T10:50:41.138Z,154833.81
2023-09-03T10:52:43.013Z,154925.63
2023-09-03T10:54:44.492Z,154944.81
2023-09-03T10:57:07.734Z,154883.56
2023-09-03T10:59:09.656Z,154860.59
2023-09-03T11:01:27.154Z,154898.91
2023-09-03T11:03:28.906Z,154924.41
2023-09-03T11:05:30.478Z,154878.44
2023-09-03T11:07:31.930Z,154877.16
2023-09-03T11:09:33.422Z,154875.88
2023-09-03T11:11:35.663Z,154874.59
2023-09-03T11:13:39.565Z,154891.22
2023-09-03T11:15:50.806Z,154837.63
2023-09-03T11:17:54.987Z,154843.97
2023-09-03T11:19:56.482Z,154935.88
2023-09-03T11:21:58.949Z,154980.50
2023-09-03T11:24:04.748Z,155006.03
2023-09-03T11:26:14.059Z,154879.72
2023-09-03T11:28:16.191Z,154976.69
2023-09-03T11:30:17.777Z,155032.78
2023-09-03T11:32:35.912Z,154988.13
2023-09-03T11:34:37.496Z,154985.63
2023-09-03T11:36:38.974Z,155013.66
2023-09-03T11:38:40.469Z,155008.53
2023-09-03T11:40:42.287Z,155022.59
2023-09-03T11:42:47.681Z,154935.88
2023-09-03T11:44:52.632Z,154926.91
2023-09-03T11:46:59.359Z,154930.75
2023-09-03T11:49:01.064Z,154898.91
2023-09-03T11:51:02.546Z,154911.63
2023-09-03T11:53:04.388Z,155018.78
2023-09-03T11:55:06.301Z,155067.25
2023-09-03T11:57:11.404Z,155074.94
2023-09-03T11:59:13.051Z,154998.38
2023-09-03T12:01:15.543Z,154960.09
2023-09-03T12:03:17.639Z,154960.09
2023-09-03T12:05:19.746Z,155046.84
2023-09-03T12:07:21.466Z,154983.06
2023-09-03T12:09:23.533Z,154935.88
2023-09-03T12:11:31.462Z,155012.38
2023-09-03T12:13:34.767Z,154990.69
2023-09-03T12:15:36.218Z,155074.94
2023-09-03T12:17:38.274Z,155021.31
2023-09-03T12:19:43.971Z,155077.50
2023-09-03T12:21:45.433Z,155048.13
2023-09-03T12:23:47.225Z,155029.00
2023-09-03T12:25:48.895Z,155050.63
2023-09-03T12:27:50.609Z,155140.00
2023-09-03T12:29:55.328Z,155260.00
2023-09-03T12:31:56.837Z,155216.56
2023-09-03T12:33:58.253Z,155117.03
2023-09-03T12:36:10.700Z,155017.50
2023-09-03T12:38:12.302Z,155087.72
2023-09-03T12:40:14.734Z,155104.31
2023-09-03T12:42:16.331Z,155048.13
2023-09-03T12:44:17.934Z,155054.47
2023-09-03T12:46:19.941Z,155018.78
2023-09-03T12:48:21.521Z,154957.56
2023-09-03T12:50:22.962Z,154999.66
2023-09-03T12:52:24.457Z,155050.63
2023-09-03T12:54:25.998Z,155048.13
2023-09-03T12:56:27.552Z,155036.63
2023-09-03T12:58:28.987Z,154962.66
2023-09-03T13:00:30.502Z,154981.78
2023-09-03T13:02:32.071Z,155089.00
2023-09-03T13:04:33.507Z,154993.25
2023-09-03T13:06:35.328Z,154984.34
2023-09-03T13:08:37.191Z,154986.91
2023-09-03T13:10:38.668Z,154910.34
2023-09-03T13:12:40.387Z,154944.81
2023-09-03T13:14:41.952Z,154993.25
2023-09-03T13:16:43.397Z,154985.63
2023-09-03T13:18:45.848Z,154972.84
2023-09-03T13:20:47.316Z,155103.03
2023-09-03T13:22:48.730Z,155156.59
2023-09-03T13:24:50.181Z,155146.41
2023-09-03T13:26:51.713Z,155174.44
2023-09-03T13:28:53.156Z,155127.28
2023-09-03T13:31:06.647Z,155018.78
2023-09-03T13:33:09.738Z,155078.78
2023-09-03T13:35:11.252Z,155118.31
2023-09-03T13:37:12.857Z,155148.97
2023-09-03T13:39:14.495Z,155216.56
2023-09-03T13:41:15.947Z,155222.97
2023-09-03T13:43:20.270Z,155129.84
2023-09-03T13:45:23.331Z,155129.84
2023-09-03T13:47:24.872Z,155074.94
2023-09-03T13:49:27.186Z,155095.34
2023-09-03T13:51:28.689Z,155089.00
2023-09-03T13:53:30.112Z,155143.84
2023-09-03T13:55:31.659Z,155059.59
2023-09-03T13:57:33.832Z,155191.06
2023-09-03T13:59:36.132Z,155212.78
2023-09-03T14:01:40.659Z,155261.28
2023-09-03T14:03:42.285Z,155210.22
2023-09-03T14:05:43.756Z,155105.59
2023-09-03T14:07:45.308Z,155077.50
2023-09-03T14:09:46.751Z,154988.13
2023-09-03T14:11:48.200Z,155057.03
2023-09-03T14:13:50.188Z,155013.66
2023-09-03T14:15:52.146Z,155029.00
2023-09-03T14:17:53.633Z,154977.97
2023-09-03T14:19:55.286Z,155011.09
2023-09-03T14:21:57.079Z,154966.50
2023-09-03T14:23:58.502Z,154946.09
2023-09-03T14:26:00.044Z,154998.38
2023-09-03T14:28:01.624Z,154898.91
2023-09-03T14:30:03.330Z,154888.66
2023-09-03T14:32:05.598Z,154921.84
2023-09-03T14:34:07.392Z,154889.94
2023-09-03T14:36:08.881Z,154938.41
2023-09-03T14:38:11.189Z,154993.25
2023-09-03T14:40:12.813Z,154974.13
2023-09-03T14:42:14.260Z,154935.88
2023-09-03T14:44:15.902Z,154939.72
2023-09-03T14:46:17.436Z,155029.00
2023-09-03T14:48:18.911Z,154981.78
2023-09-03T14:50:21.233Z,154970.28
2023-09-03T14:52:22.705Z,154961.38
2023-09-03T14:54:24.143Z,154944.81
2023-09-03T14:56:25.757Z,154998.38
2023-09-03T14:58:27.308Z,154887.38
2023-09-03T15:00:28.755Z,154872.06
2023-09-03T15:02:31.798Z,154893.78
2023-09-03T15:04:33.562Z,154868.22
2023-09-03T15:06:35.016Z,154858.03
2023-09-03T15:08:36.874Z,154882.28
2023-09-03T15:10:38.660Z,154920.56
2023-09-03T15:12:40.149Z,154962.66
2023-09-03T15:14:41.782Z,154926.91
2023-09-03T15:16:43.771Z,154850.38
2023-09-03T15:18:45.273Z,154847.81
2023-09-03T15:20:52.679Z,154847.81
2023-09-03T15:22:54.245Z,154875.88
2023-09-03T15:24:55.726Z,154831.25
2023-09-03T15:26:57.259Z,154812.13
2023-09-03T15:28:58.859Z,154860.59
2023-09-03T15:31:00.377Z,154892.50
2023-09-03T15:33:04.331Z,154875.88
2023-09-03T15:35:06.393Z,154835.09
2023-09-03T15:37:07.887Z,154826.13
2023-09-03T15:39:09.521Z,154850.38
2023-09-03T15:41:11.130Z,154850.38
2023-09-03T15:43:12.829Z,154840.19
2023-09-03T15:45:14.409Z,154776.44
2023-09-03T15:47:16.087Z,154759.84
2023-09-03T15:49:17.551Z,154793.00
2023-09-03T15:51:19.348Z,154845.25
2023-09-03T15:53:21.444Z,154787.91
2023-09-03T15:55:23.526Z,154773.91
2023-09-03T15:57:26.910Z,154688.44
2023-09-03T15:59:28.444Z,154740.72
2023-09-03T16:01:29.910Z,154720.31
2023-09-03T16:03:31.622Z,154735.66
2023-09-03T16:05:33.291Z,154730.53
2023-09-03T16:07:34.853Z,154673.16
2023-09-03T16:09:36.443Z,154693.53
2023-09-03T16:11:38.042Z,154696.09
2023-09-03T16:13:39.471Z,154676.94
2023-09-03T16:15:43.237Z,154662.94
2023-09-03T16:17:45.128Z,154665.50
2023-09-03T16:19:46.859Z,154625.97
2023-09-03T16:21:48.534Z,154591.59
2023-09-03T16:23:50.171Z,154594.09
2023-09-03T16:25:51.607Z,154591.59
2023-09-03T16:27:53.244Z,154575.00
2023-09-03T16:29:54.787Z,154550.81
2023-09-03T16:31:56.253Z,154499.78
2023-09-03T16:33:57.817Z,154485.78
2023-09-03T16:36:00.345Z,154529.16
2023-09-03T16:38:01.786Z,154513.84
2023-09-03T16:40:03.590Z,154485.78
2023-09-03T16:42:05.258Z,154495.97
2023-09-03T16:44:06.866Z,154498.50
2023-09-03T16:46:11.791Z,154493.41
2023-09-03T16:48:13.345Z,154466.69
2023-09-03T16:50:14.837Z,154490.84
2023-09-03T16:52:16.459Z,154487.06
2023-09-03T16:54:18.452Z,154460.31
2023-09-03T16:56:19.885Z,154451.34
2023-09-03T16:58:21.702Z,154493.41
2023-09-03T17:00:25.188Z,154501.06
2023-09-03T17:02:26.726Z,154492.13
2023-09-03T17:04:28.342Z,154497.22
2023-09-03T17:06:30.085Z,154429.69
2023-09-03T17:08:31.520Z,154437.38
2023-09-03T17:10:33.160Z,154408.03
2023-09-03T17:12:34.699Z,154369.84
2023-09-03T17:14:36.152Z,154403.00
2023-09-03T17:16:37.706Z,154382.63
2023-09-03T17:18:39.322Z,154326.53
2023-09-03T17:20:42.164Z,154349.47
2023-09-03T17:22:44.931Z,154307.44
2023-09-03T17:24:46.569Z,154326.53
2023-09-03T17:26:48.007Z,154322.75
2023-09-03T17:28:49.509Z,154303.63
2023-09-03T17:30:51.054Z,154283.25
2023-09-03T17:32:52.584Z,154304.91
2023-09-03T17:34:54.158Z,154288.31
2023-09-03T17:36:55.813Z,154265.38
2023-09-03T17:38:57.324Z,154288.31
2023-09-03T17:40:58.900Z,154245.00
2023-09-03T17:43:00.460Z,154290.84
2023-09-03T17:45:02.064Z,154299.78
2023-09-03T17:47:03.614Z,154312.56
2023-09-03T17:49:05.515Z,154265.38
2023-09-03T17:51:06.980Z,154255.22
2023-09-03T17:53:08.519Z,154256.50
2023-09-03T17:55:10.057Z,154269.22
2023-09-03T17:57:11.604Z,154255.22
2023-09-03T17:59:13.229Z,154203.00
2023-09-03T18:01:14.859Z,154238.69
2023-09-03T18:03:16.422Z,154205.53
2023-09-03T18:05:19.046Z,154234.84
2023-09-03T18:07:20.680Z,154224.63
2023-09-03T18:09:22.269Z,154190.28
2023-09-03T18:11:23.801Z,154158.47
2023-09-03T18:13:25.589Z,154155.94
2023-09-03T18:15:27.341Z,154150.84
2023-09-03T18:17:29.126Z,154131.75
2023-09-03T18:19:30.749Z,154152.09
2023-09-03T18:21:32.193Z,154159.72
2023-09-03T18:23:33.790Z,154162.25
2023-09-03T18:25:35.364Z,154125.38
2023-09-03T18:27:37.021Z,154141.91
2023-09-03T18:29:38.594Z,154107.56
2023-09-03T18:31:40.204Z,154129.19
2023-09-03T18:33:42.130Z,154163.53
2023-09-03T18:35:43.825Z,154187.72
2023-09-03T18:37:45.420Z,154177.56
2023-09-03T18:39:46.883Z,154113.94
2023-09-03T18:41:48.508Z,154093.53
2023-09-03T18:43:50.129Z,154084.59
2023-09-03T18:45:51.566Z,154038.78
2023-09-03T18:47:53.222Z,154013.34
2023-09-03T18:49:54.754Z,154024.78
2023-09-03T18:51:59.402Z,153968.81
2023-09-03T18:54:01.288Z,154019.69
2023-09-03T18:56:03.867Z,153987.91
2023-09-03T18:58:06.175Z,153982.78
2023-09-03T19:00:08.178Z,153961.16
2023-09-03T19:02:09.815Z,153956.06
2023-09-03T19:04:11.262Z,153929.38
2023-09-03T19:06:18.196Z,153849.16
2023-09-03T19:08:20.134Z,153855.53
2023-09-03T19:10:21.924Z,153832.63
2023-09-03T19:12:23.482Z,153864.47
2023-09-03T19:14:25.091Z,153861.91
2023-09-03T19:16:26.596Z,153877.16
2023-09-03T19:18:28.361Z,153844.09
2023-09-03T19:20:29.864Z,153808.47
2023-09-03T19:22:31.363Z,153828.81
2023-09-03T19:24:32.877Z,153819.94
2023-09-03T19:26:34.444Z,153856.81
2023-09-03T19:28:35.872Z,153854.25
2023-09-03T19:30:39.174Z,153846.66
2023-09-03T19:32:40.698Z,153831.34
2023-09-03T19:34:42.194Z,153772.88
2023-09-03T19:36:43.753Z,153772.88
2023-09-03T19:38:45.198Z,153788.13
2023-09-03T19:40:46.623Z,153770.31
2023-09-03T19:42:52.884Z,153760.16
2023-09-03T19:44:55.468Z,153791.94
2023-09-03T19:46:57.142Z,153783.06
2023-09-03T19:48:58.796Z,153734.72
2023-09-03T19:51:01.237Z,153771.59
2023-09-03T19:53:02.677Z,153760.16
2023-09-03T19:55:04.458Z,153775.41
2023-09-03T19:57:05.974Z,153777.97
2023-09-03T19:59:07.394Z,153752.53
2023-09-03T20:01:09.037Z,153711.84
2023-09-03T20:03:11.228Z,153744.94
2023-09-03T20:05:12.738Z,153791.94
2023-09-03T20:07:14.357Z,153770.31
2023-09-03T20:09:15.792Z,153755.06
2023-09-03T20:11:17.568Z,153734.72
2023-09-03T20:13:19.701Z,153705.47
2023-09-03T20:15:21.800Z,153743.66
2023-09-03T20:17:23.356Z,153720.75
2023-09-03T20:19:24.789Z,153686.41
2023-09-03T20:21:26.503Z,153612.66
2023-09-03T20:23:28.938Z,153630.44
2023-09-03T20:25:30.396Z,153608.81
2023-09-03T20:27:32.259Z,153646.94
2023-09-03T20:29:33.701Z,153654.63
2023-09-03T20:31:35.251Z,153625.34
2023-09-03T20:33:36.975Z,153589.75
2023-09-03T20:35:38.459Z,153612.66
2023-09-03T20:37:40.224Z,153603.72
2023-09-03T20:39:42.031Z,153580.84
2023-09-03T20:41:43.470Z,153621.50
2023-09-03T20:43:44.946Z,153583.38
2023-09-03T20:45:47.027Z,153601.19
2023-09-03T20:47:48.571Z,153568.16
2023-09-03T20:49:50.165Z,153597.41
2023-09-03T20:51:52.037Z,153585.94
2023-09-03T20:53:53.456Z,153579.63
2023-09-03T20:55:55.599Z,153564.34
2023-09-03T20:57:57.406Z,153540.19
2023-09-03T20:59:59.969Z,153591.03
2023-09-03T21:02:01.443Z,153570.69
2023-09-03T21:04:03.331Z,153524.94
2023-09-03T21:06:04.795Z,153564.34
2023-09-03T21:08:06.777Z,153598.69
2023-09-03T21:10:09.444Z,153578.34
2023-09-03T21:12:10.870Z,153541.44
2023-09-03T21:14:12.373Z,153559.28
2023-09-03T21:16:14.187Z,153551.63
2023-09-03T21:18:18.391Z,153556.75
2023-09-03T21:20:21.200Z,153574.53
2023-09-03T21:22:23.000Z,153555.47
2023-09-03T21:24:24.435Z,153514.81
2023-09-03T21:26:25.852Z,153582.13
2023-09-03T21:28:27.988Z,153584.66
2023-09-03T21:30:29.437Z,153547.81
2023-09-03T21:32:30.958Z,153561.78
2023-09-03T21:34:32.653Z,153552.91
2023-09-03T21:36:34.127Z,153561.78
2023-09-03T21:38:36.065Z,153546.53
2023-09-03T21:40:38.043Z,153474.13
2023-09-03T21:42:39.483Z,153555.47
2023-09-03T21:44:41.116Z,153528.75
2023-09-03T21:46:43.146Z,153558.00
2023-09-03T21:48:44.602Z,153544.00
2023-09-03T21:50:46.046Z,153512.25
2023-09-03T21:52:47.841Z,153480.47
2023-09-03T21:54:49.267Z,153463.94
2023-09-03T21:56:50.725Z,153503.34
2023-09-03T21:58:52.233Z,153479.19
2023-09-03T22:00:53.656Z,153485.56
2023-09-03T22:02:55.328Z,153458.84
2023-09-03T22:04:59.269Z,153450.00
2023-09-03T22:07:01.329Z,153462.69
2023-09-03T22:09:02.960Z,153429.66
2023-09-03T22:11:04.593Z,153429.66
2023-09-03T22:13:06.035Z,153442.34
2023-09-03T22:15:08.071Z,153444.91
2023-09-03T22:17:09.654Z,153457.59
2023-09-03T22:19:24.047Z,153450.00
2023-09-03T22:21:28.592Z,153444.91
2023-09-03T22:23:30.071Z,153443.63
2023-09-03T22:25:31.501Z,153434.75
2023-09-03T22:27:33.605Z,153448.72
2023-09-03T22:29:35.577Z,153444.91
2023-09-03T22:31:37.028Z,153463.94
2023-09-03T22:33:38.935Z,153416.94
2023-09-03T22:35:40.635Z,153411.84
2023-09-03T22:37:42.069Z,153419.47
2023-09-03T22:39:43.702Z,153422.03
2023-09-03T22:41:45.265Z,153396.56
2023-09-03T22:43:46.755Z,153439.81
2023-09-03T22:45:48.492Z,153456.31
2023-09-03T22:47:50.165Z,153427.13
2023-09-03T22:49:51.694Z,153388.97
2023-09-03T22:51:53.189Z,153338.13
2023-09-03T22:53:54.787Z,153372.47
2023-09-03T22:55:56.223Z,153341.94
2023-09-03T22:57:57.761Z,153286.09
2023-09-03T22:59:59.465Z,153326.72
2023-09-03T23:02:00.999Z,153316.53
2023-09-03T23:04:02.783Z,153300.03
2023-09-03T23:06:04.260Z,153287.38
2023-09-03T23:08:05.884Z,153258.13
2023-09-03T23:10:07.840Z,153236.53
2023-09-03T23:12:09.381Z,153239.09
2023-09-03T23:14:10.823Z,153242.91
2023-09-03T23:16:12.433Z,153274.63
2023-09-03T23:18:14.039Z,153184.50
2023-09-03T23:20:15.637Z,153175.59
2023-09-03T23:22:17.092Z,153269.59